createdAt,value
2023-01-29T00:00:33.362Z,23.66
2023-01-29T00:03:03.790Z,23.58
2023-01-29T00:05:33.886Z,23.57
2023-01-29T00:08:04.313Z,23.58
2023-01-29T00:10:33.799Z,23.70
2023-01-29T00:13:03.483Z,23.82
2023-01-29T00:15:34.168Z,23.88
2023-01-29T00:18:04.210Z,24.05
2023-01-29T00:20:34.980Z,24.08
2023-01-29T00:23:05.008Z,24.05
2023-01-29T00:25:35.044Z,23.90
2023-01-29T00:28:05.184Z,23.75
2023-01-29T00:30:34.761Z,23.71
2023-01-29T00:33:05.259Z,23.73
2023-01-29T00:35:36.018Z,23.80
2023-01-29T00:38:06.075Z,23.88
2023-01-29T00:40:58.290Z,24.05
2023-01-29T00:43:46.751Z,24.12
2023-01-29T00:46:16.835Z,24.22
2023-01-29T00:48:46.411Z,24.25
2023-01-29T00:51:16.064Z,24.26
2023-01-29T00:53:46.181Z,23.96
2023-01-29T00:56:15.706Z,23.78
2023-01-29T00:58:45.419Z,23.87
2023-01-29T01:01:15.074Z,23.82
2023-01-29T01:03:44.786Z,23.68
2023-01-29T01:06:14.647Z,23.50
2023-01-29T01:09:02.487Z,23.46
2023-01-29T01:11:32.533Z,23.42
2023-01-29T01:14:03.315Z,23.37
2023-01-29T01:16:34.112Z,23.36
2023-01-29T01:19:05.912Z,23.36
2023-01-29T01:21:36.031Z,23.34
2023-01-29T01:24:07.084Z,23.22
2023-01-29T01:26:37.290Z,23.26
2023-01-29T01:29:07.314Z,23.31
2023-01-29T01:31:37.494Z,23.30
2023-01-29T01:34:07.759Z,23.34
2023-01-29T01:36:37.368Z,23.27
2023-01-29T01:39:07.167Z,23.31
2023-01-29T01:41:37.258Z,23.33
2023-01-29T01:44:07.531Z,23.27
2023-01-29T01:46:39.220Z,23.29
2023-01-29T01:49:18.361Z,23.24
2023-01-29T01:51:53.258Z,23.24
2023-01-29T01:54:28.458Z,23.30
2023-01-29T01:57:17.186Z,23.33
2023-01-29T02:00:00.401Z,23.24
2023-01-29T02:02:48.055Z,23.19
2023-01-29T02:05:35.781Z,23.27
2023-01-29T02:08:24.310Z,23.27
2023-01-29T02:10:55.363Z,23.34
2023-01-29T02:13:25.871Z,23.34
2023-01-29T02:15:55.966Z,23.37
2023-01-29T02:18:25.898Z,23.43
2023-01-29T02:21:26.382Z,23.40
2023-01-29T02:24:33.795Z,23.37
2023-01-29T02:27:15.269Z,23.54
2023-01-29T02:29:55.860Z,23.49
2023-01-29T02:32:55.540Z,23.43
2023-01-29T02:35:35.974Z,23.43
2023-01-29T02:38:30.460Z,23.40
2023-01-29T02:41:15.331Z,23.56
2023-01-29T02:44:31.424Z,23.60
2023-01-29T02:47:26.161Z,23.56
2023-01-29T02:50:01.323Z,23.68
2023-01-29T02:52:52.022Z,23.68
2023-01-29T02:55:30.879Z,23.70
2023-01-29T02:58:25.986Z,23.81
2023-01-29T03:01:00.288Z,23.91
2023-01-29T03:03:40.556Z,23.91
2023-01-29T03:06:31.776Z,23.88
2023-01-29T03:09:06.354Z,23.91
2023-01-29T03:11:42.781Z,23.87
2023-01-29T03:14:55.688Z,23.85
2023-01-29T03:17:29.255Z,23.87
2023-01-29T03:20:00.186Z,23.84
2023-01-29T03:22:31.385Z,23.85
2023-01-29T03:25:22.168Z,23.93
2023-01-29T03:28:19.450Z,23.94
2023-01-29T03:31:15.217Z,23.96
2023-01-29T03:34:19.334Z,23.94
2023-01-29T03:36:57.002Z,23.91
2023-01-29T03:39:30.545Z,23.94
2023-01-29T03:42:20.894Z,23.94
2023-01-29T03:45:11.940Z,23.90
2023-01-29T03:48:08.158Z,23.67
2023-01-29T03:50:50.494Z,23.84
2023-01-29T03:53:31.702Z,23.91
2023-01-29T03:56:04.831Z,23.97
2023-01-29T03:58:49.994Z,23.91
2023-01-29T04:01:25.828Z,23.77
2023-01-29T04:04:07.142Z,23.71
2023-01-29T04:06:42.245Z,23.68
2023-01-29T04:09:17.839Z,23.63
2023-01-29T04:11:57.460Z,23.71
2023-01-29T04:14:27.677Z,23.80
2023-01-29T04:17:01.938Z,23.84
2023-01-29T04:19:41.757Z,23.87
2023-01-29T04:22:25.976Z,23.82
2023-01-29T04:24:56.573Z,23.71
2023-01-29T04:27:59.827Z,23.64
2023-01-29T04:30:43.320Z,23.51
2023-01-29T04:33:23.165Z,23.47
2023-01-29T04:36:15.608Z,23.67
2023-01-29T04:39:07.016Z,23.78
2023-01-29T04:42:15.339Z,23.82
2023-01-29T04:45:26.029Z,23.82
2023-01-29T04:48:10.969Z,23.84
2023-01-29T04:50:59.917Z,23.82
2023-01-29T04:53:57.531Z,23.78
2023-01-29T04:56:41.176Z,23.82
2023-01-29T04:59:15.980Z,23.85
2023-01-29T05:01:46.818Z,23.85
2023-01-29T05:04:20.700Z,23.75
2023-01-29T05:06:52.360Z,23.68
2023-01-29T05:09:23.352Z,23.57
2023-01-29T05:11:53.943Z,23.61
2023-01-29T05:14:26.887Z,23.73
2023-01-29T05:16:59.504Z,23.87
2023-01-29T05:19:29.623Z,23.85
2023-01-29T05:22:00.169Z,23.90
2023-01-29T05:24:30.552Z,23.93
2023-01-29T05:27:18.981Z,23.94
2023-01-29T05:29:50.110Z,23.94
2023-01-29T05:32:20.135Z,23.96
2023-01-29T05:34:50.133Z,23.94
2023-01-29T05:37:20.160Z,23.93
2023-01-29T05:39:50.270Z,23.84
2023-01-29T05:42:19.815Z,23.78
2023-01-29T05:44:49.622Z,23.75
2023-01-29T05:47:22.925Z,23.74
2023-01-29T05:49:52.774Z,23.70
2023-01-29T05:52:22.567Z,23.73
2023-01-29T05:54:52.617Z,23.77
2023-01-29T05:57:23.292Z,23.81
2023-01-29T05:59:53.353Z,23.88
2023-01-29T06:02:23.656Z,23.80
2023-01-29T06:04:54.194Z,23.63
2023-01-29T06:07:24.202Z,23.56
2023-01-29T06:09:54.249Z,23.58
2023-01-29T06:12:24.651Z,23.54
2023-01-29T06:14:54.710Z,23.61
2023-01-29T06:17:24.591Z,23.63
2023-01-29T06:19:54.204Z,23.64
2023-01-29T06:22:23.908Z,23.63
2023-01-29T06:24:53.942Z,23.68
2023-01-29T06:27:24.025Z,23.74
2023-01-29T06:29:54.149Z,23.73
2023-01-29T06:32:24.161Z,23.63
2023-01-29T06:34:54.395Z,23.67
2023-01-29T06:37:23.900Z,23.70
2023-01-29T06:39:54.686Z,23.73
2023-01-29T06:42:28.895Z,23.77
2023-01-29T06:44:59.412Z,23.82
2023-01-29T06:47:29.709Z,23.82
2023-01-29T06:49:59.994Z,23.77
2023-01-29T06:52:30.812Z,23.68
2023-01-29T06:55:00.720Z,23.78
2023-01-29T06:57:33.318Z,23.82
2023-01-29T07:00:03.580Z,23.84
2023-01-29T07:02:33.455Z,23.85
2023-01-29T07:05:03.480Z,23.87
2023-01-29T07:07:33.482Z,23.85
2023-01-29T07:10:03.504Z,23.87
2023-01-29T07:12:33.509Z,23.88
2023-01-29T07:15:03.795Z,23.74
2023-01-29T07:17:33.784Z,23.82
2023-01-29T07:20:03.649Z,23.84
2023-01-29T07:22:34.206Z,23.82
2023-01-29T07:25:04.319Z,23.84
2023-01-29T07:27:33.952Z,23.84
2023-01-29T07:30:03.982Z,23.84
2023-01-29T07:32:34.168Z,23.82
2023-01-29T07:35:03.648Z,23.85
2023-01-29T07:37:33.321Z,23.82
2023-01-29T07:40:06.082Z,23.78
2023-01-29T07:42:36.548Z,23.82
2023-01-29T07:45:08.030Z,23.77
2023-01-29T07:47:38.404Z,23.84
2023-01-29T07:50:08.946Z,23.84
2023-01-29T07:52:39.022Z,23.80
2023-01-29T07:55:09.419Z,23.82
2023-01-29T07:57:39.687Z,23.80
2023-01-29T08:00:11.390Z,23.75
2023-01-29T08:02:44.417Z,23.80
2023-01-29T08:05:14.487Z,23.80
2023-01-29T08:07:49.232Z,23.78
2023-01-29T08:10:24.339Z,23.75
2023-01-29T08:12:57.766Z,23.68
2023-01-29T08:15:28.507Z,23.58
2023-01-29T08:17:59.008Z,23.66
2023-01-29T08:20:29.276Z,23.68
2023-01-29T08:23:04.213Z,23.70
2023-01-29T08:25:35.328Z,23.64
2023-01-29T08:28:06.595Z,23.67
2023-01-29T08:30:37.011Z,23.68
2023-01-29T08:33:07.123Z,23.70
2023-01-29T08:35:37.327Z,23.58
2023-01-29T08:38:07.713Z,23.58
2023-01-29T08:40:37.874Z,23.70
2023-01-29T08:43:10.026Z,23.74
2023-01-29T08:45:43.149Z,23.77
2023-01-29T08:48:13.733Z,23.73
2023-01-29T08:50:43.806Z,23.64
2023-01-29T08:53:14.065Z,23.57
2023-01-29T08:55:44.539Z,23.63
2023-01-29T08:58:14.587Z,23.75
2023-01-29T09:00:44.416Z,23.88
2023-01-29T09:03:14.784Z,23.90
2023-01-29T09:05:44.947Z,23.88
2023-01-29T09:08:14.551Z,23.88
2023-01-29T09:10:44.321Z,23.87
2023-01-29T09:13:13.899Z,23.91
2023-01-29T09:15:43.788Z,23.93
2023-01-29T09:18:13.690Z,23.93
2023-01-29T09:20:43.636Z,23.97
2023-01-29T09:23:13.623Z,24.00
2023-01-29T09:25:45.292Z,24.05
2023-01-29T09:28:34.217Z,24.07
2023-01-29T09:31:05.085Z,24.12
2023-01-29T09:33:35.228Z,24.17
2023-01-29T09:36:05.971Z,24.17
2023-01-29T09:38:36.063Z,24.14
2023-01-29T09:41:08.637Z,24.08
2023-01-29T09:44:01.436Z,24.04
2023-01-29T09:46:49.027Z,24.11
2023-01-29T09:49:39.032Z,24.19
2023-01-29T09:52:24.787Z,24.29
2023-01-29T09:54:57.690Z,24.28
2023-01-29T09:57:48.113Z,24.33
2023-01-29T10:00:40.718Z,24.33
2023-01-29T10:03:16.994Z,24.28
2023-01-29T10:06:23.546Z,24.38
2023-01-29T10:09:28.743Z,24.36
2023-01-29T10:12:01.717Z,24.32
2023-01-29T10:14:54.543Z,24.48
2023-01-29T10:17:54.059Z,24.60
2023-01-29T10:20:55.795Z,24.62
2023-01-29T10:23:34.542Z,24.66
2023-01-29T10:26:05.200Z,24.68
2023-01-29T10:28:44.429Z,24.70
2023-01-29T10:31:26.651Z,24.62
2023-01-29T10:34:02.956Z,24.70
2023-01-29T10:36:59.115Z,24.60
2023-01-29T10:39:32.074Z,24.62
2023-01-29T10:42:23.490Z,24.76
2023-01-29T10:45:26.247Z,24.84
2023-01-29T10:48:36.077Z,24.97
2023-01-29T10:51:16.874Z,25.11
2023-01-29T10:54:09.534Z,25.26
2023-01-29T10:56:45.009Z,25.35
2023-01-29T10:59:32.573Z,25.38
2023-01-29T11:02:04.451Z,25.48
2023-01-29T11:04:35.708Z,25.62
2023-01-29T11:07:06.487Z,25.62
2023-01-29T11:10:05.058Z,25.58
2023-01-29T11:12:35.900Z,25.60
2023-01-29T11:15:08.813Z,25.60
2023-01-29T11:17:38.918Z,25.61
2023-01-29T11:20:26.819Z,25.68
2023-01-29T11:23:00.527Z,25.54
2023-01-29T11:25:33.923Z,25.60
2023-01-29T11:28:06.383Z,25.64
2023-01-29T11:30:41.067Z,25.71
2023-01-29T11:33:26.255Z,25.79
2023-01-29T11:35:58.734Z,25.89
2023-01-29T11:38:30.949Z,25.89
2023-01-29T11:41:15.591Z,25.68
2023-01-29T11:43:45.606Z,25.72
2023-01-29T11:46:16.873Z,25.81
2023-01-29T11:48:53.581Z,25.85
2023-01-29T11:51:27.580Z,25.81
2023-01-29T11:54:03.699Z,25.79
2023-01-29T11:56:44.282Z,25.78
2023-01-29T11:59:41.646Z,25.88
2023-01-29T12:02:29.315Z,26.01
2023-01-29T12:05:04.274Z,26.19
2023-01-29T12:07:35.924Z,26.23
2023-01-29T12:10:06.244Z,26.10
2023-01-29T12:12:44.389Z,25.93
2023-01-29T12:15:18.824Z,25.74
2023-01-29T12:17:59.960Z,25.69
2023-01-29T12:20:38.133Z,25.68
2023-01-29T12:23:42.712Z,25.81
2023-01-29T12:26:19.717Z,26.02
2023-01-29T12:28:59.466Z,26.39
2023-01-29T12:31:52.798Z,26.40
2023-01-29T12:34:35.908Z,26.46
2023-01-29T12:37:08.656Z,26.60
2023-01-29T12:39:39.137Z,26.51
2023-01-29T12:42:21.988Z,26.61
2023-01-29T12:45:16.654Z,27.34
2023-01-29T12:47:55.465Z,27.34
2023-01-29T12:50:37.229Z,27.00
2023-01-29T12:53:15.849Z,26.74
2023-01-29T12:55:49.939Z,26.69
2023-01-29T12:58:29.989Z,26.74
2023-01-29T13:01:08.147Z,26.53
2023-01-29T13:03:56.984Z,26.46
2023-01-29T13:06:43.784Z,26.64
2023-01-29T13:09:24.762Z,26.83
2023-01-29T13:12:01.204Z,27.41
2023-01-29T13:14:56.456Z,27.21
2023-01-29T13:17:39.830Z,27.04
2023-01-29T13:20:29.981Z,27.01
2023-01-29T13:23:22.877Z,26.74
2023-01-29T13:25:56.046Z,26.69
2023-01-29T13:28:28.832Z,26.59
2023-01-29T13:31:21.313Z,26.51
2023-01-29T13:34:11.619Z,27.16
2023-01-29T13:36:56.604Z,27.73
2023-01-29T13:39:31.382Z,28.02
2023-01-29T13:42:04.233Z,28.10
2023-01-29T13:44:41.061Z,28.23
2023-01-29T13:47:13.420Z,28.62
2023-01-29T13:49:55.614Z,28.90
2023-01-29T13:52:46.485Z,28.82
2023-01-29T13:55:16.791Z,28.33
2023-01-29T13:57:49.916Z,27.78
2023-01-29T14:00:22.824Z,27.53
2023-01-29T14:03:01.516Z,27.61
2023-01-29T14:05:31.747Z,27.72
2023-01-29T14:08:25.671Z,28.14
2023-01-29T14:11:22.695Z,28.82
2023-01-29T14:13:53.470Z,28.95
2023-01-29T14:16:24.485Z,28.71
2023-01-29T14:19:04.582Z,28.58
2023-01-29T14:21:37.108Z,28.60
2023-01-29T14:24:15.370Z,28.98
2023-01-29T14:26:48.794Z,29.26
2023-01-29T14:29:32.649Z,29.20
2023-01-29T14:32:10.335Z,28.78
2023-01-29T14:34:51.165Z,28.57
2023-01-29T14:37:30.643Z,28.37
2023-01-29T14:40:21.022Z,28.36
2023-01-29T14:43:08.591Z,28.50
2023-01-29T14:45:42.906Z,28.54
2023-01-29T14:48:12.876Z,29.23
2023-01-29T14:50:48.955Z,30.00
2023-01-29T14:53:44.801Z,30.24
2023-01-29T14:56:17.832Z,30.24
2023-01-29T14:59:00.180Z,29.53
2023-01-29T15:01:38.515Z,29.90
2023-01-29T15:04:22.001Z,30.59
2023-01-29T15:07:12.066Z,31.09
2023-01-29T15:10:21.954Z,30.55
2023-01-29T15:13:16.803Z,30.41
2023-01-29T15:15:58.631Z,31.20
2023-01-29T15:18:44.944Z,30.65
2023-01-29T15:21:17.917Z,30.41
2023-01-29T15:23:51.708Z,30.96
2023-01-29T15:26:26.987Z,31.27
2023-01-29T15:29:04.169Z,31.54
2023-01-29T15:31:36.708Z,30.93
2023-01-29T15:34:09.099Z,31.04
2023-01-29T15:36:41.020Z,31.36
2023-01-29T15:39:13.964Z,30.86
2023-01-29T15:41:44.993Z,30.96
2023-01-29T15:44:20.630Z,30.64
2023-01-29T15:46:57.809Z,31.46
2023-01-29T15:49:39.532Z,31.51
2023-01-29T15:52:36.355Z,31.26
2023-01-29T15:55:08.377Z,31.70
2023-01-29T15:57:42.490Z,31.73
2023-01-29T16:00:25.062Z,31.98
2023-01-29T16:02:56.041Z,32.18
2023-01-29T16:05:31.119Z,32.45
2023-01-29T16:08:02.213Z,32.22
2023-01-29T16:10:34.907Z,31.65
2023-01-29T16:13:05.511Z,30.96
2023-01-29T16:15:41.386Z,30.75
2023-01-29T16:18:37.498Z,30.71
2023-01-29T16:21:18.848Z,30.71
2023-01-29T16:23:57.678Z,30.49
2023-01-29T16:26:33.298Z,30.27
2023-01-29T16:29:16.321Z,30.07
2023-01-29T16:31:48.587Z,30.42
2023-01-29T16:34:29.159Z,30.27
2023-01-29T16:37:00.263Z,30.79
2023-01-29T16:39:38.354Z,30.44
2023-01-29T16:42:18.236Z,30.13
2023-01-29T16:45:07.493Z,30.44
2023-01-29T16:47:45.421Z,30.49
2023-01-29T16:50:40.646Z,30.05
2023-01-29T16:53:19.021Z,30.97
2023-01-29T16:55:50.940Z,31.04
2023-01-29T16:58:29.393Z,30.80
2023-01-29T17:01:17.125Z,30.56
2023-01-29T17:04:12.271Z,30.38
2023-01-29T17:06:45.770Z,31.17
2023-01-29T17:09:30.128Z,30.65
2023-01-29T17:12:09.737Z,30.29
2023-01-29T17:14:43.100Z,30.04
2023-01-29T17:17:20.688Z,29.83
2023-01-29T17:19:50.633Z,29.73
2023-01-29T17:22:20.427Z,29.62
2023-01-29T17:24:52.608Z,29.59
2023-01-29T17:27:24.511Z,29.66
2023-01-29T17:29:54.644Z,30.38
2023-01-29T17:32:25.895Z,30.39
2023-01-29T17:35:15.946Z,30.99
2023-01-29T17:37:46.318Z,30.48
2023-01-29T17:40:42.268Z,30.28
2023-01-29T17:43:15.288Z,30.28
2023-01-29T17:45:45.356Z,30.03
2023-01-29T17:48:26.759Z,30.04
2023-01-29T17:50:59.029Z,30.58
2023-01-29T17:53:44.215Z,30.25
2023-01-29T17:56:28.596Z,30.08
2023-01-29T17:58:58.716Z,30.90
2023-01-29T18:01:28.059Z,30.97
2023-01-29T18:03:58.048Z,30.41
2023-01-29T18:06:30.635Z,30.14
2023-01-29T18:09:00.691Z,29.96
2023-01-29T18:11:30.611Z,30.03
2023-01-29T18:14:04.554Z,30.21
2023-01-29T18:16:45.590Z,30.52
2023-01-29T18:19:24.320Z,30.76
2023-01-29T18:21:55.313Z,30.90
2023-01-29T18:24:27.556Z,30.86
2023-01-29T18:26:57.618Z,30.39
2023-01-29T18:29:31.149Z,30.07
2023-01-29T18:32:01.395Z,29.98
2023-01-29T18:34:31.394Z,29.88
2023-01-29T18:37:01.899Z,30.59
2023-01-29T18:39:31.995Z,31.00
2023-01-29T18:42:01.318Z,31.40
2023-01-29T18:44:31.232Z,31.27
2023-01-29T18:47:03.104Z,31.33
2023-01-29T18:49:33.960Z,31.24
2023-01-29T18:52:04.085Z,31.70
2023-01-29T18:54:34.147Z,31.68
2023-01-29T18:57:14.612Z,30.82
2023-01-29T18:59:54.157Z,30.58
2023-01-29T19:02:23.771Z,31.13
2023-01-29T19:04:53.482Z,31.07
2023-01-29T19:07:25.447Z,30.76
2023-01-29T19:09:56.010Z,30.82
2023-01-29T19:12:26.093Z,30.93
2023-01-29T19:14:55.399Z,31.10
2023-01-29T19:17:27.972Z,31.23
2023-01-29T19:20:03.100Z,30.65
2023-01-29T19:22:33.943Z,30.20
2023-01-29T19:25:03.990Z,29.83
2023-01-29T19:27:34.125Z,29.76
2023-01-29T19:30:06.671Z,30.28
2023-01-29T19:32:37.129Z,30.85
2023-01-29T19:35:07.479Z,30.15
2023-01-29T19:37:37.545Z,30.41
2023-01-29T19:40:09.277Z,30.69
2023-01-29T19:42:39.599Z,30.32
2023-01-29T19:45:10.995Z,30.61
2023-01-29T19:47:42.937Z,30.87
2023-01-29T19:50:13.711Z,30.99
2023-01-29T19:52:51.900Z,30.90
2023-01-29T19:55:23.460Z,31.04
2023-01-29T19:57:58.226Z,31.02
2023-01-29T20:00:28.364Z,30.90
2023-01-29T20:02:58.383Z,30.79
2023-01-29T20:05:28.385Z,30.75
2023-01-29T20:07:59.150Z,30.71
2023-01-29T20:10:29.135Z,30.80
2023-01-29T20:12:59.371Z,30.75
2023-01-29T20:15:29.362Z,30.74
2023-01-29T20:18:00.158Z,30.86
2023-01-29T20:20:31.141Z,30.72
2023-01-29T20:23:02.999Z,30.66
2023-01-29T20:25:33.078Z,30.79
2023-01-29T20:28:03.774Z,30.78
2023-01-29T20:30:36.156Z,30.74
2023-01-29T20:33:07.326Z,30.75
2023-01-29T20:35:38.948Z,30.61
2023-01-29T20:38:11.171Z,30.54
2023-01-29T20:40:42.670Z,30.56
2023-01-29T20:43:13.229Z,30.61
2023-01-29T20:45:43.730Z,30.68
2023-01-29T20:48:13.916Z,30.62
2023-01-29T20:50:44.085Z,30.59
2023-01-29T20:53:14.388Z,30.56
2023-01-29T20:55:44.416Z,30.34
2023-01-29T20:58:14.747Z,30.28
2023-01-29T21:00:45.569Z,30.28
2023-01-29T21:03:15.513Z,30.17
2023-01-29T21:05:45.317Z,30.13
2023-01-29T21:08:15.503Z,30.23
2023-01-29T21:10:46.514Z,30.35
2023-01-29T21:13:16.584Z,30.10
2023-01-29T21:15:46.732Z,30.20
2023-01-29T21:18:16.668Z,30.29
2023-01-29T21:20:46.129Z,30.08
2023-01-29T21:23:15.874Z,29.78
2023-01-29T21:25:46.424Z,29.72
2023-01-29T21:28:17.207Z,29.84
2023-01-29T21:30:47.651Z,29.67
2023-01-29T21:33:17.798Z,29.50
2023-01-29T21:35:47.653Z,29.35
2023-01-29T21:38:17.644Z,29.22
2023-01-29T21:40:47.417Z,29.15
2023-01-29T21:43:17.290Z,29.15
2023-01-29T21:45:47.281Z,29.02
2023-01-29T21:48:17.318Z,28.88
2023-01-29T21:50:49.984Z,28.79
2023-01-29T21:53:20.743Z,28.67
2023-01-29T21:55:50.877Z,28.57
2023-01-29T21:58:21.636Z,28.44
2023-01-29T22:00:51.834Z,28.36
2023-01-29T22:03:21.170Z,28.24
2023-01-29T22:05:51.372Z,28.12
2023-01-29T22:08:21.952Z,27.99
2023-01-29T22:10:52.073Z,27.94
2023-01-29T22:13:22.169Z,27.83
2023-01-29T22:15:56.428Z,27.73
2023-01-29T22:18:26.602Z,27.63
2023-01-29T22:20:56.522Z,27.58
2023-01-29T22:23:27.109Z,27.48
2023-01-29T22:26:04.620Z,27.42
2023-01-29T22:28:36.575Z,27.34
2023-01-29T22:31:07.407Z,27.34
2023-01-29T22:33:37.615Z,27.28
2023-01-29T22:36:08.713Z,27.20
2023-01-29T22:38:38.669Z,27.05
2023-01-29T22:41:08.469Z,26.97
2023-01-29T22:43:38.787Z,26.90
2023-01-29T22:46:10.134Z,26.84
2023-01-29T22:48:40.165Z,26.79
2023-01-29T22:51:12.931Z,26.73
2023-01-29T22:53:45.817Z,26.65
2023-01-29T22:56:16.294Z,26.60
2023-01-29T22:58:46.622Z,26.60
2023-01-29T23:01:23.329Z,26.57
2023-01-29T23:03:53.768Z,26.47
2023-01-29T23:06:24.114Z,26.44
2023-01-29T23:08:54.465Z,26.43
2023-01-29T23:11:25.229Z,26.44
2023-01-29T23:13:56.377Z,26.46
2023-01-29T23:16:28.177Z,26.39
2023-01-29T23:18:58.800Z,26.32
2023-01-29T23:21:29.716Z,26.29
2023-01-29T23:24:00.767Z,26.32
2023-01-29T23:26:49.514Z,26.25
2023-01-29T23:29:19.547Z,26.22
2023-01-29T23:31:49.158Z,26.23
2023-01-29T23:34:18.907Z,26.22
2023-01-29T23:36:48.546Z,26.22
2023-01-29T23:39:18.501Z,26.10
2023-01-29T23:41:48.502Z,26.01
2023-01-29T23:44:18.111Z,26.01
2023-01-29T23:46:48.382Z,25.86
2023-01-29T23:49:18.649Z,25.84
2023-01-29T23:51:52.425Z,25.85
2023-01-29T23:54:22.464Z,25.91
2023-01-29T23:56:51.989Z,25.93
2023-01-29T23:59:22.117Z,25.89
